Flight Track Log - Related Links

Times and Time Zones

All times are in EDT time to prevent confusion due to time zone crossing. See the N5290H flight status page for this flight to view local times or setup timezone preferences in your user account.

Time Position Orientation Groundspeed Altitude Reporting Facility
EDT Latitude Longitude Course Direction KTS MPH feet Rate Location/Type
Tue 02:53:29 PM 42.5172 -76.3306 70° East 120 138 4,500  Level Boston Center
Tue 02:54:24 PM 42.5267 -76.2944 70° East 114 131 5,000 621 Climbing Boston Center
Tue 02:55:25 PM 42.5239 -76.2522 95° East 107 123 5,700 248 Climbing Boston Center
Tue 02:56:25 PM 42.5294 -76.2131 79° East 113 130 5,500 -99 Descending Boston Center
Tue 02:57:26 PM 42.5392 -76.1686 73° East 114 131 5,500  Level Boston Center
Tue 02:58:27 PM 42.5450 -76.1236 80° East 113 130 5,500  Level Boston Center
Tue 02:59:27 PM 42.5525 -76.0819 76° East 119 137 5,500  Level Boston Center
Tue 03:00:28 PM 42.5622 -76.0372 74° East 119 137 5,500  Level Boston Center
Tue 03:01:28 PM 42.5697 -75.9983 75° East 118 136 5,500  Level Boston Center
Tue 03:02:29 PM 42.5756 -75.9506 81° East 124 143 5,500  Level Boston Center
Tue 03:03:30 PM 42.5769 -75.9028 88° East 127 146 5,500  Level Boston Center
Tue 03:04:30 PM 42.5847 -75.8553 77° East 120 138 5,500  Level Boston Center
Tue 03:05:31 PM 42.5922 -75.8133 76° East 115 132 5,500  Level Boston Center
Tue 03:06:32 PM 42.5978 -75.7658 81° East 124 143 5,500  Level Boston Center
Tue 03:07:32 PM 42.6053 -75.7208 77° East 122 140 5,500  Level Boston Center
Tue 03:08:33 PM 42.6106 -75.6761 81° East 119 137 5,500  Level Boston Center
Tue 03:09:33 PM 42.6181 -75.6342 76° East 116 133 5,500  Level Boston Center
Tue 03:10:34 PM 42.6256 -75.5894 77° East 119 137 5,500  Level Boston Center
Tue 03:11:35 PM 42.6331 -75.5475 76° East 122 140 5,500  Level Boston Center
Tue 03:12:35 PM 42.6386 -75.4997 81° East 120 138 5,500  Level Boston Center
Tue 03:13:36 PM 42.6439 -75.4547 81° East 114 131 5,500  Level Boston Center
Tue 03:14:37 PM 42.6511 -75.4128 77° East 116 133 5,500  Level Boston Center
Tue 03:15:37 PM 42.6586 -75.3681 77° East 117 135 5,500  Level Boston Center
Tue 03:16:38 PM 42.6639 -75.3231 81° East 124 143 5,500  Level Boston Center
Tue 03:17:39 PM 42.6711 -75.2839 76° East 112 129 5,500 50 Level Boston Center
Tue 03:18:39 PM 42.6764 -75.2389 81° East 117 135 5,600  Climbing Boston Center
Tue 03:19:40 PM 42.6819 -75.1911 81° East 119 137 5,500  Descending Boston Center
Tue 03:20:41 PM 42.6892 -75.1492 77° East 119 137 5,600 50 Climbing Boston Center
Tue 03:21:41 PM 42.6964 -75.1014 78° East 122 140 5,600  Level Boston Center
Tue 03:22:42 PM 42.7017 -75.0564 81° East 123 142 5,600 -49 Level Boston Center
Tue 03:23:43 PM 42.7111 -75.0117 74° East 131 151 5,500  Descending Boston Center
Tue 03:24:43 PM 42.7164 -74.9636 81° East 121 139 5,600 50 Climbing Boston Center
Tue 03:25:44 PM 42.7214 -74.9214 81° East 122 140 5,600 -62 Level Boston Center
Tue 03:26:20 PM 42.7283 -74.8906 73° East 129 148 5,500 -125 Descending Boston Center
Tue 03:27:20 PM 42.7336 -74.8372 82° East 136 157 5,400 -50 Descending Boston Center
Tue 03:28:21 PM 42.7367 -74.7950 84° East 120 138 5,400  Level Boston Center
Tue 03:29:22 PM 42.7397 -74.7497 85° East 114 131 5,400 52 Level Boston Center
Tue 03:30:16 PM 42.7467 -74.7075 77° East 120 138 5,500 -104 Climbing Boston Center
Tue 03:31:17 PM 42.7539 -74.6628 78° East 123 142 5,200 -246 Descending Boston Center
Tue 03:32:18 PM 42.7631 -74.6206 74° East 118 136 5,000 -198 Descending Boston Center
Tue 03:33:18 PM 42.7681 -74.5783 81° East 112 129 4,800 -149 Descending Boston Center
Tue 03:34:19 PM 42.7731 -74.5333 81° East 118 136 4,700 -98 Descending Boston Center
Tue 03:35:20 PM 42.7822 -74.4825 76° East 132 152 4,600 -148 Descending Boston Center
Tue 03:36:21 PM 42.7872 -74.4403 81° East 127 146 4,400 -99 Descending Boston Center
Tue 03:37:21 PM 42.7944 -74.3867 80° East 127 146 4,400 -99 Level Boston Center
Tue 03:38:22 PM 42.8014 -74.3389 79° East 130 150 4,200 -209 Descending Boston Center
Tue 03:39:16 PM 42.8042 -74.2994 85° East 126 145 4,000 -313 Descending Boston Center
Tue 03:40:17 PM 42.8111 -74.2458 80° East 129 148 3,600 -295 Descending Boston Center
Tue 03:41:18 PM 42.8183 -74.1922 80° East 145 167 3,400 -248 Descending Boston Center
Tue 03:42:18 PM 42.8192 -74.1383 89° East 147 169 3,100 -397 Descending Boston Center
Tue 03:43:19 PM 42.8242 -74.0875 82° East 140 161 2,600 -545 Descending Boston Center
Tue 03:44:19 PM 42.8308 -74.0425 79° East 112 129 2,000 -545 Descending Boston Center
Tue 03:45:20 PM 42.8336 -74.0028 85° East 110 127 1,500 -344 Descending Boston Center
Tue 03:46:21 PM 42.8322 -73.9575 92° East 109 125 1,300 -99 Descending Boston Center
Tue 03:47:21 PM 42.8306 -73.9181 93° East 116 133 1,300 -142 Level Boston Center
Tue 03:48:28 PM 42.8475 -73.9014 36° Northeast 71 82 1,000 -269 Descending Boston Center

Login

Don't have an account? Register now (free) for customized features, flight alerts, and more!